Etusivu
METAR-TAF:

METAR-TAF

Lentoasemat :

Angola, Indiana, Yhdysvallat

Leveyspiiri: 41-38-23N, Pituuspiiri: 085-05-01W, korkeus merenpinnasta: 303 m

Tämänhetkinen sää

Tämä raportti tehtiin 17 minuuttia sitten, kello 20.35 UTC
Tuuli 6 kn pohjoisen/luoteesta puuskistuen 12 kn:hen
Lämpötila -4°C
Kosteus 93%
Ilmanpaine 1011 hPa
Näkyvyys: 0.4 km
lumisadetta

METAR: KANQ 262035Z AUTO 34006G12KT 1/4SM SN VV002 M04/M05 A2985 RMK AO2

Aika: 15:52 (20:52 UTC)


TAF: puuttuu

Säähavainnot ja -ennusteet yli 4000 lentoasemalta (METAR- ja TAF-raportit).

Käytössä olevat sääasemat on merkitty karttaan keltaisilla ja punaisilla pisteillä.

Aseta hiiri pisteen päälle nähdäksesi sääaseman nimen.

Klikkaa sitten nähdäksesi säähavainnot ja -ennusteet.

Kartan vaihtaminen: klikkaa mustalla rastilla varustettuja vihreitä pisteitä, niin voit zoomata sisään; viivalla varustettua vihreää pistettä, niin voit zoomata ulos tai vihreitä nuolia, niin pääset viereisille kartoille.


METAR-TAF: